sensor_id;sensor_type;location;lat;lon;timestamp;temperature;humidity
39525;DHT22;25203;50.754;6.978;2022-10-16T00:01:19;14.80;99.90
39525;DHT22;25203;50.754;6.978;2022-10-16T00:03:20;14.80;99.90
39525;DHT22;25203;50.754;6.978;2022-10-16T00:05:21;14.70;99.90
39525;DHT22;25203;50.754;6.978;2022-10-16T00:07:22;14.70;99.90
39525;DHT22;25203;50.754;6.978;2022-10-16T00:09:22;14.60;99.90
39525;DHT22;25203;50.754;6.978;2022-10-16T00:11:26;14.60;99.90
39525;DHT22;25203;50.754;6.978;2022-10-16T00:13:27;14.60;99.90
39525;DHT22;25203;50.754;6.978;2022-10-16T00:15:27;14.50;99.90
39525;DHT22;25203;50.754;6.978;2022-10-16T00:17:29;14.50;99.90
39525;DHT22;25203;50.754;6.978;2022-10-16T00:19:30;14.50;99.90
39525;DHT22;25203;50.754;6.978;2022-10-16T00:21:31;14.50;99.90
39525;DHT22;25203;50.754;6.978;2022-10-16T00:23:33;14.40;99.90
39525;DHT22;25203;50.754;6.978;2022-10-16T00:25:34;14.40;99.90
39525;DHT22;25203;50.754;6.978;2022-10-16T00:27:35;14.40;99.90
39525;DHT22;25203;50.754;6.978;2022-10-16T00:29:35;14.30;99.90
39525;DHT22;25203;50.754;6.978;2022-10-16T00:31:36;14.30;99.90
39525;DHT22;25203;50.754;6.978;2022-10-16T00:33:38;14.20;99.90
39525;DHT22;25203;50.754;6.978;2022-10-16T00:35:39;14.20;99.90
39525;DHT22;25203;50.754;6.978;2022-10-16T00:37:40;14.20;99.90
39525;DHT22;25203;50.754;6.978;2022-10-16T00:39:41;14.20;99.90
39525;DHT22;25203;50.754;6.978;2022-10-16T00:41:41;14.20;99.90
39525;DHT22;25203;50.754;6.978;2022-10-16T00:43:56;14.30;99.90
39525;DHT22;25203;50.754;6.978;2022-10-16T00:45:58;14.30;99.90
39525;DHT22;25203;50.754;6.978;2022-10-16T00:47:58;14.20;99.90
39525;DHT22;25203;50.754;6.978;2022-10-16T00:50:08;14.30;99.90
39525;DHT22;25203;50.754;6.978;2022-10-16T00:52:09;14.20;99.90
39525;DHT22;25203;50.754;6.978;2022-10-16T00:54:29;14.20;99.90
39525;DHT22;25203;50.754;6.978;2022-10-16T00:56:31;14.20;99.90
39525;DHT22;25203;50.754;6.978;2022-10-16T00:58:32;14.20;99.90
39525;DHT22;25203;50.754;6.978;2022-10-16T01:00:32;14.20;99.90
39525;DHT22;25203;50.754;6.978;2022-10-16T01:02:33;14.20;99.90
39525;DHT22;25203;50.754;6.978;2022-10-16T01:05:00;14.10;99.90
39525;DHT22;25203;50.754;6.978;2022-10-16T01:09:20;14.10;99.90
39525;DHT22;25203;50.754;6.978;2022-10-16T01:11:48;14.10;99.90
39525;DHT22;25203;50.754;6.978;2022-10-16T01:13:55;14.20;99.90
39525;DHT22;25203;50.754;6.978;2022-10-16T01:16:13;14.10;99.90
39525;DHT22;25203;50.754;6.978;2022-10-16T01:18:34;14.20;99.90
39525;DHT22;25203;50.754;6.978;2022-10-16T01:20:44;14.20;99.90
39525;DHT22;25203;50.754;6.978;2022-10-16T01:25:09;14.10;99.90
39525;DHT22;25203;50.754;6.978;2022-10-16T01:27:30;14.00;99.90
39525;DHT22;25203;50.754;6.978;2022-10-16T01:29:52;14.10;99.90
39525;DHT22;25203;50.754;6.978;2022-10-16T01:31:57;14.00;99.90
39525;DHT22;25203;50.754;6.978;2022-10-16T01:34:20;14.00;99.90
39525;DHT22;25203;50.754;6.978;2022-10-16T01:36:26;14.00;99.90
39525;DHT22;25203;50.754;6.978;2022-10-16T01:38:35;13.90;99.90
39525;DHT22;25203;50.754;6.978;2022-10-16T01:40:39;13.90;99.90
39525;DHT22;25203;50.754;6.978;2022-10-16T01:42:45;13.90;99.90
39525;DHT22;25203;50.754;6.978;2022-10-16T01:44:50;13.90;99.90
39525;DHT22;25203;50.754;6.978;2022-10-16T01:46:52;13.80;99.90
39525;DHT22;25203;50.754;6.978;2022-10-16T01:48:55;13.80;99.90
39525;DHT22;25203;50.754;6.978;2022-10-16T01:51:05;13.70;99.90
39525;DHT22;25203;50.754;6.978;2022-10-16T01:53:07;13.70;99.90
39525;DHT22;25203;50.754;6.978;2022-10-16T01:55:10;13.70;99.90
39525;DHT22;25203;50.754;6.978;2022-10-16T01:57:14;13.70;99.90
39525;DHT22;25203;50.754;6.978;2022-10-16T01:59:18;13.70;99.90
39525;DHT22;25203;50.754;6.978;2022-10-16T02:01:22;13.80;99.90
39525;DHT22;25203;50.754;6.978;2022-10-16T02:03:23;13.80;99.90
39525;DHT22;25203;50.754;6.978;2022-10-16T02:07:31;13.90;99.90
39525;DHT22;25203;50.754;6.978;2022-10-16T02:09:33;13.90;99.90
39525;DHT22;25203;50.754;6.978;2022-10-16T02:11:35;14.00;99.90
39525;DHT22;25203;50.754;6.978;2022-10-16T02:14:00;14.00;99.90
39525;DHT22;25203;50.754;6.978;2022-10-16T02:16:01;14.10;99.90
39525;DHT22;25203;50.754;6.978;2022-10-16T02:18:06;14.10;99.90
39525;DHT22;25203;50.754;6.978;2022-10-16T02:20:08;14.20;99.90
39525;DHT22;25203;50.754;6.978;2022-10-16T02:22:19;14.20;99.90
39525;DHT22;25203;50.754;6.978;2022-10-16T02:24:32;14.20;99.90
39525;DHT22;25203;50.754;6.978;2022-10-16T02:26:47;14.30;99.90
39525;DHT22;25203;50.754;6.978;2022-10-16T02:28:54;14.40;99.90
39525;DHT22;25203;50.754;6.978;2022-10-16T02:31:01;14.40;99.90
39525;DHT22;25203;50.754;6.978;2022-10-16T02:33:07;14.50;99.90
39525;DHT22;25203;50.754;6.978;2022-10-16T02:35:08;14.50;99.90
39525;DHT22;25203;50.754;6.978;2022-10-16T02:37:09;14.60;99.90
39525;DHT22;25203;50.754;6.978;2022-10-16T02:39:11;14.50;99.90
39525;DHT22;25203;50.754;6.978;2022-10-16T02:41:12;14.60;99.90
39525;DHT22;25203;50.754;6.978;2022-10-16T02:43:13;14.60;99.90
39525;DHT22;25203;50.754;6.978;2022-10-16T02:45:14;14.60;99.90
39525;DHT22;25203;50.754;6.978;2022-10-16T02:47:14;14.60;99.90
39525;DHT22;25203;50.754;6.978;2022-10-16T02:49:15;14.60;99.90
39525;DHT22;25203;50.754;6.978;2022-10-16T02:51:16;14.60;99.90
39525;DHT22;25203;50.754;6.978;2022-10-16T02:53:16;14.60;99.90
39525;DHT22;25203;50.754;6.978;2022-10-16T02:55:17;14.60;99.90
39525;DHT22;25203;50.754;6.978;2022-10-16T02:57:18;14.60;99.90
39525;DHT22;25203;50.754;6.978;2022-10-16T02:59:18;14.60;99.90
39525;DHT22;25203;50.754;6.978;2022-10-16T03:01:19;14.70;99.90
39525;DHT22;25203;50.754;6.978;2022-10-16T03:03:20;14.60;99.90
39525;DHT22;25203;50.754;6.978;2022-10-16T03:05:20;14.60;99.90
39525;DHT22;25203;50.754;6.978;2022-10-16T03:07:21;14.60;99.90
39525;DHT22;25203;50.754;6.978;2022-10-16T03:09:21;14.60;99.90
39525;DHT22;25203;50.754;6.978;2022-10-16T03:11:22;14.60;99.90
39525;DHT22;25203;50.754;6.978;2022-10-16T03:13:23;14.60;99.90
39525;DHT22;25203;50.754;6.978;2022-10-16T03:15:23;14.60;99.90
39525;DHT22;25203;50.754;6.978;2022-10-16T03:17:24;14.60;99.90
39525;DHT22;25203;50.754;6.978;2022-10-16T03:19:25;14.60;99.90
39525;DHT22;25203;50.754;6.978;2022-10-16T03:21:25;14.60;99.90
39525;DHT22;25203;50.754;6.978;2022-10-16T03:23:26;14.60;99.90
39525;DHT22;25203;50.754;6.978;2022-10-16T03:25:26;14.60;99.90
39525;DHT22;25203;50.754;6.978;2022-10-16T03:27:27;14.60;99.90
39525;DHT22;25203;50.754;6.978;2022-10-16T03:29:28;14.70;99.90
39525;DHT22;25203;50.754;6.978;2022-10-16T03:31:30;14.60;99.90
39525;DHT22;25203;50.754;6.978;2022-10-16T03:33:30;14.60;99.90
39525;DHT22;25203;50.754;6.978;2022-10-16T03:35:32;14.60;99.90
39525;DHT22;25203;50.754;6.978;2022-10-16T03:37:33;14.60;99.90
39525;DHT22;25203;50.754;6.978;2022-10-16T03:39:33;14.60;99.90
39525;DHT22;25203;50.754;6.978;2022-10-16T03:41:34;14.60;99.90
39525;DHT22;25203;50.754;6.978;2022-10-16T03:43:35;14.60;99.90
39525;DHT22;25203;50.754;6.978;2022-10-16T03:45:36;14.60;99.90
39525;DHT22;25203;50.754;6.978;2022-10-16T03:47:37;14.60;99.90
39525;DHT22;25203;50.754;6.978;2022-10-16T03:49:37;14.60;99.90
39525;DHT22;25203;50.754;6.978;2022-10-16T03:51:38;14.60;99.90
39525;DHT22;25203;50.754;6.978;2022-10-16T03:53:39;14.50;99.90
39525;DHT22;25203;50.754;6.978;2022-10-16T03:55:41;14.60;99.90
39525;DHT22;25203;50.754;6.978;2022-10-16T03:57:42;14.50;99.90
39525;DHT22;25203;50.754;6.978;2022-10-16T03:59:43;14.50;99.90
39525;DHT22;25203;50.754;6.978;2022-10-16T04:01:43;14.50;99.90
39525;DHT22;25203;50.754;6.978;2022-10-16T04:03:44;14.50;99.90
39525;DHT22;25203;50.754;6.978;2022-10-16T04:05:45;14.60;99.90
39525;DHT22;25203;50.754;6.978;2022-10-16T04:07:45;14.60;99.90
39525;DHT22;25203;50.754;6.978;2022-10-16T04:09:46;14.50;99.90
39525;DHT22;25203;50.754;6.978;2022-10-16T04:11:46;14.50;99.90
39525;DHT22;25203;50.754;6.978;2022-10-16T04:13:47;14.60;99.90
39525;DHT22;25203;50.754;6.978;2022-10-16T04:15:48;14.60;99.90
39525;DHT22;25203;50.754;6.978;2022-10-16T04:17:49;14.60;99.90
39525;DHT22;25203;50.754;6.978;2022-10-16T04:19:49;14.60;99.90
39525;DHT22;25203;50.754;6.978;2022-10-16T04:21:50;14.60;99.90
39525;DHT22;25203;50.754;6.978;2022-10-16T04:23:50;14.70;99.90
39525;DHT22;25203;50.754;6.978;2022-10-16T04:25:51;14.70;99.90
39525;DHT22;25203;50.754;6.978;2022-10-16T04:27:55;14.70;99.90
39525;DHT22;25203;50.754;6.978;2022-10-16T04:29:56;14.70;99.90
39525;DHT22;25203;50.754;6.978;2022-10-16T04:31:56;14.70;99.90
39525;DHT22;25203;50.754;6.978;2022-10-16T04:33:57;14.80;99.90
39525;DHT22;25203;50.754;6.978;2022-10-16T04:36:01;14.70;99.90
39525;DHT22;25203;50.754;6.978;2022-10-16T04:38:02;14.70;99.90
39525;DHT22;25203;50.754;6.978;2022-10-16T04:40:03;14.70;99.90
39525;DHT22;25203;50.754;6.978;2022-10-16T04:42:04;14.70;99.90
39525;DHT22;25203;50.754;6.978;2022-10-16T04:44:04;14.60;99.90
39525;DHT22;25203;50.754;6.978;2022-10-16T04:46:05;14.60;99.90
39525;DHT22;25203;50.754;6.978;2022-10-16T04:48:06;14.60;99.90
39525;DHT22;25203;50.754;6.978;2022-10-16T04:50:07;14.50;99.90
39525;DHT22;25203;50.754;6.978;2022-10-16T04:52:07;14.40;99.90
39525;DHT22;25203;50.754;6.978;2022-10-16T04:54:10;14.40;99.90
39525;DHT22;25203;50.754;6.978;2022-10-16T04:56:10;14.40;99.90
39525;DHT22;25203;50.754;6.978;2022-10-16T04:58:11;14.30;99.90
39525;DHT22;25203;50.754;6.978;2022-10-16T05:00:12;14.40;99.90
39525;DHT22;25203;50.754;6.978;2022-10-16T05:02:13;14.40;99.90
39525;DHT22;25203;50.754;6.978;2022-10-16T05:04:13;14.40;99.90
39525;DHT22;25203;50.754;6.978;2022-10-16T05:06:15;14.40;99.90
39525;DHT22;25203;50.754;6.978;2022-10-16T05:08:16;14.30;99.90
39525;DHT22;25203;50.754;6.978;2022-10-16T05:10:17;14.40;99.90
39525;DHT22;25203;50.754;6.978;2022-10-16T05:12:17;14.40;99.90
39525;DHT22;25203;50.754;6.978;2022-10-16T05:14:18;14.30;99.90
39525;DHT22;25203;50.754;6.978;2022-10-16T05:16:19;14.30;99.90
39525;DHT22;25203;50.754;6.978;2022-10-16T05:18:19;14.30;99.90
39525;DHT22;25203;50.754;6.978;2022-10-16T05:20:20;14.30;99.90
39525;DHT22;25203;50.754;6.978;2022-10-16T05:22:21;14.30;99.90
39525;DHT22;25203;50.754;6.978;2022-10-16T05:24:21;14.20;99.90
39525;DHT22;25203;50.754;6.978;2022-10-16T05:26:22;14.20;99.90
39525;DHT22;25203;50.754;6.978;2022-10-16T05:28:24;14.20;99.90
39525;DHT22;25203;50.754;6.978;2022-10-16T05:30:25;14.30;99.90
39525;DHT22;25203;50.754;6.978;2022-10-16T05:32:25;14.30;99.90
39525;DHT22;25203;50.754;6.978;2022-10-16T05:34:26;14.30;99.90
39525;DHT22;25203;50.754;6.978;2022-10-16T05:36:27;14.40;99.90
39525;DHT22;25203;50.754;6.978;2022-10-16T05:38:27;14.30;99.90
39525;DHT22;25203;50.754;6.978;2022-10-16T05:40:28;14.30;99.90
39525;DHT22;25203;50.754;6.978;2022-10-16T05:42:29;14.30;99.90
39525;DHT22;25203;50.754;6.978;2022-10-16T05:44:29;14.30;99.90
39525;DHT22;25203;50.754;6.978;2022-10-16T05:46:30;14.20;99.90
39525;DHT22;25203;50.754;6.978;2022-10-16T05:48:31;14.20;99.90
39525;DHT22;25203;50.754;6.978;2022-10-16T05:50:32;14.20;99.90
39525;DHT22;25203;50.754;6.978;2022-10-16T05:52:33;14.20;99.90
39525;DHT22;25203;50.754;6.978;2022-10-16T05:54:33;14.30;99.90
39525;DHT22;25203;50.754;6.978;2022-10-16T05:56:34;14.30;99.90
39525;DHT22;25203;50.754;6.978;2022-10-16T05:58:36;14.40;99.90
39525;DHT22;25203;50.754;6.978;2022-10-16T06:00:37;14.40;99.90
39525;DHT22;25203;50.754;6.978;2022-10-16T06:02:39;14.40;99.90
39525;DHT22;25203;50.754;6.978;2022-10-16T06:04:39;14.40;99.90
39525;DHT22;25203;50.754;6.978;2022-10-16T06:06:40;14.40;99.90
39525;DHT22;25203;50.754;6.978;2022-10-16T06:08:42;14.40;99.90
39525;DHT22;25203;50.754;6.978;2022-10-16T06:10:44;14.40;99.90
39525;DHT22;25203;50.754;6.978;2022-10-16T06:12:44;14.40;99.90
39525;DHT22;25203;50.754;6.978;2022-10-16T06:14:45;14.50;99.90
39525;DHT22;25203;50.754;6.978;2022-10-16T06:16:49;14.50;99.90
39525;DHT22;25203;50.754;6.978;2022-10-16T06:18:54;14.60;99.90
39525;DHT22;25203;50.754;6.978;2022-10-16T06:20:55;14.50;99.90
39525;DHT22;25203;50.754;6.978;2022-10-16T06:22:56;14.50;99.90
39525;DHT22;25203;50.754;6.978;2022-10-16T06:24:57;14.50;99.90
39525;DHT22;25203;50.754;6.978;2022-10-16T06:26:57;14.50;99.90
39525;DHT22;25203;50.754;6.978;2022-10-16T06:28:59;14.50;99.90
39525;DHT22;25203;50.754;6.978;2022-10-16T06:31:00;14.40;99.90
39525;DHT22;25203;50.754;6.978;2022-10-16T06:33:01;14.30;99.90
39525;DHT22;25203;50.754;6.978;2022-10-16T06:35:02;14.30;99.90
39525;DHT22;25203;50.754;6.978;2022-10-16T06:37:02;14.20;99.90
39525;DHT22;25203;50.754;6.978;2022-10-16T06:39:04;14.20;99.90
39525;DHT22;25203;50.754;6.978;2022-10-16T06:41:07;14.20;99.90
39525;DHT22;25203;50.754;6.978;2022-10-16T06:43:08;14.20;99.90
39525;DHT22;25203;50.754;6.978;2022-10-16T06:45:09;14.20;99.90
39525;DHT22;25203;50.754;6.978;2022-10-16T06:47:09;14.10;99.90
39525;DHT22;25203;50.754;6.978;2022-10-16T06:49:10;14.10;99.90
39525;DHT22;25203;50.754;6.978;2022-10-16T06:51:19;14.20;99.90
39525;DHT22;25203;50.754;6.978;2022-10-16T06:53:20;14.30;99.90
39525;DHT22;25203;50.754;6.978;2022-10-16T06:55:21;14.40;99.90
39525;DHT22;25203;50.754;6.978;2022-10-16T06:57:22;14.60;99.90
39525;DHT22;25203;50.754;6.978;2022-10-16T06:59:22;14.70;99.90
39525;DHT22;25203;50.754;6.978;2022-10-16T07:01:24;14.70;99.90
39525;DHT22;25203;50.754;6.978;2022-10-16T07:03:25;14.80;99.90
39525;DHT22;25203;50.754;6.978;2022-10-16T07:05:25;14.90;99.90
39525;DHT22;25203;50.754;6.978;2022-10-16T07:07:26;15.00;99.90
39525;DHT22;25203;50.754;6.978;2022-10-16T07:09:27;14.90;99.90
39525;DHT22;25203;50.754;6.978;2022-10-16T07:11:28;14.90;99.90
39525;DHT22;25203;50.754;6.978;2022-10-16T07:13:28;15.00;99.90
39525;DHT22;25203;50.754;6.978;2022-10-16T07:15:29;15.20;99.90
39525;DHT22;25203;50.754;6.978;2022-10-16T07:17:30;15.40;99.90
39525;DHT22;25203;50.754;6.978;2022-10-16T07:19:30;15.40;99.90
39525;DHT22;25203;50.754;6.978;2022-10-16T07:21:33;15.30;99.90
39525;DHT22;25203;50.754;6.978;2022-10-16T07:23:37;15.30;99.90
39525;DHT22;25203;50.754;6.978;2022-10-16T07:25:38;15.30;99.90
39525;DHT22;25203;50.754;6.978;2022-10-16T07:27:39;15.20;99.90
39525;DHT22;25203;50.754;6.978;2022-10-16T07:29:40;15.00;99.90
39525;DHT22;25203;50.754;6.978;2022-10-16T07:31:41;14.90;99.90
39525;DHT22;25203;50.754;6.978;2022-10-16T07:33:43;14.90;99.90
39525;DHT22;25203;50.754;6.978;2022-10-16T07:36:02;15.00;99.90
39525;DHT22;25203;50.754;6.978;2022-10-16T07:38:03;15.10;99.90
39525;DHT22;25203;50.754;6.978;2022-10-16T07:40:04;15.20;99.90
39525;DHT22;25203;50.754;6.978;2022-10-16T07:42:05;15.20;99.90
39525;DHT22;25203;50.754;6.978;2022-10-16T07:44:06;15.30;99.90
39525;DHT22;25203;50.754;6.978;2022-10-16T07:46:07;15.20;99.90
39525;DHT22;25203;50.754;6.978;2022-10-16T07:48:07;15.20;99.90
39525;DHT22;25203;50.754;6.978;2022-10-16T07:50:08;15.30;99.90
39525;DHT22;25203;50.754;6.978;2022-10-16T07:52:09;15.40;99.90
39525;DHT22;25203;50.754;6.978;2022-10-16T07:54:10;15.40;99.90
39525;DHT22;25203;50.754;6.978;2022-10-16T07:56:11;15.50;99.90
39525;DHT22;25203;50.754;6.978;2022-10-16T07:58:12;15.50;99.90
39525;DHT22;25203;50.754;6.978;2022-10-16T08:00:13;15.60;99.90
39525;DHT22;25203;50.754;6.978;2022-10-16T08:02:14;15.60;99.90
39525;DHT22;25203;50.754;6.978;2022-10-16T08:04:14;15.60;99.90
39525;DHT22;25203;50.754;6.978;2022-10-16T08:06:16;15.50;99.90
39525;DHT22;25203;50.754;6.978;2022-10-16T08:08:18;15.50;99.90
39525;DHT22;25203;50.754;6.978;2022-10-16T08:10:20;15.50;99.90
39525;DHT22;25203;50.754;6.978;2022-10-16T08:12:21;15.40;99.90
39525;DHT22;25203;50.754;6.978;2022-10-16T08:14:21;15.40;99.90
39525;DHT22;25203;50.754;6.978;2022-10-16T08:16:22;15.40;99.90
39525;DHT22;25203;50.754;6.978;2022-10-16T08:18:23;15.50;99.90
39525;DHT22;25203;50.754;6.978;2022-10-16T08:20:24;16.00;99.90
39525;DHT22;25203;50.754;6.978;2022-10-16T08:22:24;17.10;99.90
39525;DHT22;25203;50.754;6.978;2022-10-16T08:24:25;19.00;99.90
39525;DHT22;25203;50.754;6.978;2022-10-16T08:26:27;20.90;99.90
39525;DHT22;25203;50.754;6.978;2022-10-16T08:28:27;21.80;99.90
39525;DHT22;25203;50.754;6.978;2022-10-16T08:30:28;22.40;99.90
39525;DHT22;25203;50.754;6.978;2022-10-16T08:32:29;23.80;96.90
39525;DHT22;25203;50.754;6.978;2022-10-16T08:34:29;24.70;93.30
39525;DHT22;25203;50.754;6.978;2022-10-16T08:36:30;25.90;92.40
39525;DHT22;25203;50.754;6.978;2022-10-16T08:38:31;26.60;87.00
39525;DHT22;25203;50.754;6.978;2022-10-16T08:40:33;26.50;85.20
39525;DHT22;25203;50.754;6.978;2022-10-16T08:47:25;26.00;85.90
39525;DHT22;25203;50.754;6.978;2022-10-16T08:49:27;25.80;84.90
39525;DHT22;25203;50.754;6.978;2022-10-16T08:51:31;25.60;83.90
39525;DHT22;25203;50.754;6.978;2022-10-16T08:53:44;25.70;84.30
39525;DHT22;25203;50.754;6.978;2022-10-16T08:55:50;25.10;84.90
39525;DHT22;25203;50.754;6.978;2022-10-16T08:57:51;24.00;88.50
39525;DHT22;25203;50.754;6.978;2022-10-16T08:59:53;23.50;90.50
39525;DHT22;25203;50.754;6.978;2022-10-16T09:02:00;23.10;91.60
39525;DHT22;25203;50.754;6.978;2022-10-16T09:07:24;21.80;94.20
39525;DHT22;25203;50.754;6.978;2022-10-16T09:14:13;21.00;99.60
39525;DHT22;25203;50.754;6.978;2022-10-16T09:16:24;22.50;96.60
39525;DHT22;25203;50.754;6.978;2022-10-16T09:18:59;24.30;92.20
39525;DHT22;25203;50.754;6.978;2022-10-16T09:23:28;25.80;86.70
39525;DHT22;25203;50.754;6.978;2022-10-16T09:25:30;26.00;83.60
39525;DHT22;25203;50.754;6.978;2022-10-16T09:27:32;25.20;84.10
39525;DHT22;25203;50.754;6.978;2022-10-16T09:29:32;24.90;85.70
39525;DHT22;25203;50.754;6.978;2022-10-16T09:31:36;25.30;84.80
39525;DHT22;25203;50.754;6.978;2022-10-16T09:33:38;25.80;82.90
39525;DHT22;25203;50.754;6.978;2022-10-16T09:35:43;25.60;82.20
39525;DHT22;25203;50.754;6.978;2022-10-16T09:37:46;25.50;82.70
39525;DHT22;25203;50.754;6.978;2022-10-16T09:39:49;25.10;83.20
39525;DHT22;25203;50.754;6.978;2022-10-16T09:41:51;25.60;80.00
39525;DHT22;25203;50.754;6.978;2022-10-16T09:43:54;26.00;78.50
39525;DHT22;25203;50.754;6.978;2022-10-16T09:46:04;25.70;77.70
39525;DHT22;25203;50.754;6.978;2022-10-16T09:48:12;25.10;80.00
39525;DHT22;25203;50.754;6.978;2022-10-16T09:52:21;25.30;79.30
39525;DHT22;25203;50.754;6.978;2022-10-16T09:54:22;26.50;77.70
39525;DHT22;25203;50.754;6.978;2022-10-16T09:56:28;26.80;74.00
39525;DHT22;25203;50.754;6.978;2022-10-16T09:58:29;25.80;74.20
39525;DHT22;25203;50.754;6.978;2022-10-16T10:00:30;25.30;76.10
39525;DHT22;25203;50.754;6.978;2022-10-16T10:02:36;24.80;76.20
39525;DHT22;25203;50.754;6.978;2022-10-16T10:04:43;24.40;78.80
39525;DHT22;25203;50.754;6.978;2022-10-16T10:06:45;24.30;77.60
39525;DHT22;25203;50.754;6.978;2022-10-16T10:09:02;24.40;78.30
39525;DHT22;25203;50.754;6.978;2022-10-16T10:11:04;25.10;78.50
39525;DHT22;25203;50.754;6.978;2022-10-16T10:13:20;26.70;74.50
39525;DHT22;25203;50.754;6.978;2022-10-16T10:15:22;27.00;72.80
39525;DHT22;25203;50.754;6.978;2022-10-16T10:17:26;27.50;72.10
39525;DHT22;25203;50.754;6.978;2022-10-16T10:19:27;27.90;70.10
39525;DHT22;25203;50.754;6.978;2022-10-16T10:21:28;27.20;68.30
39525;DHT22;25203;50.754;6.978;2022-10-16T10:23:29;28.20;67.30
39525;DHT22;25203;50.754;6.978;2022-10-16T10:40:52;25.10;70.40
39525;DHT22;25203;50.754;6.978;2022-10-16T10:47:36;25.80;70.60
39525;DHT22;25203;50.754;6.978;2022-10-16T10:59:02;27.30;65.20
39525;DHT22;25203;50.754;6.978;2022-10-16T11:01:14;27.30;66.00
39525;DHT22;25203;50.754;6.978;2022-10-16T11:05:41;25.40;67.30
39525;DHT22;25203;50.754;6.978;2022-10-16T11:08:15;24.70;68.80
39525;DHT22;25203;50.754;6.978;2022-10-16T11:10:24;23.80;71.40
39525;DHT22;25203;50.754;6.978;2022-10-16T11:12:36;23.60;74.40
39525;DHT22;25203;50.754;6.978;2022-10-16T11:14:54;23.60;75.30
39525;DHT22;25203;50.754;6.978;2022-10-16T11:19:31;22.50;79.30
39525;DHT22;25203;50.754;6.978;2022-10-16T11:21:43;22.00;80.00
39525;DHT22;25203;50.754;6.978;2022-10-16T11:23:59;21.70;81.10
39525;DHT22;25203;50.754;6.978;2022-10-16T11:26:04;21.30;83.50
39525;DHT22;25203;50.754;6.978;2022-10-16T11:30:25;21.10;86.70
39525;DHT22;25203;50.754;6.978;2022-10-16T11:32:47;21.30;88.00
39525;DHT22;25203;50.754;6.978;2022-10-16T11:34:52;21.50;84.90
39525;DHT22;25203;50.754;6.978;2022-10-16T11:39:25;21.60;86.90
39525;DHT22;25203;50.754;6.978;2022-10-16T11:41:35;21.70;88.80
39525;DHT22;25203;50.754;6.978;2022-10-16T11:43:43;21.40;88.30
39525;DHT22;25203;50.754;6.978;2022-10-16T11:45:49;21.30;89.70
39525;DHT22;25203;50.754;6.978;2022-10-16T11:48:12;21.20;88.90
39525;DHT22;25203;50.754;6.978;2022-10-16T11:54:47;21.70;86.70
39525;DHT22;25203;50.754;6.978;2022-10-16T11:56:53;21.70;89.60
39525;DHT22;25203;50.754;6.978;2022-10-16T11:59:00;21.90;86.90
39525;DHT22;25203;50.754;6.978;2022-10-16T12:06:15;21.70;88.40
39525;DHT22;25203;50.754;6.978;2022-10-16T12:08:20;21.40;89.20
39525;DHT22;25203;50.754;6.978;2022-10-16T12:10:27;21.30;91.70
39525;DHT22;25203;50.754;6.978;2022-10-16T12:14:38;21.20;90.90
39525;DHT22;25203;50.754;6.978;2022-10-16T12:16:58;21.20;91.10
39525;DHT22;25203;50.754;6.978;2022-10-16T12:19:14;21.20;91.90
39525;DHT22;25203;50.754;6.978;2022-10-16T12:21:16;21.20;91.00
39525;DHT22;25203;50.754;6.978;2022-10-16T12:23:20;21.30;90.80
39525;DHT22;25203;50.754;6.978;2022-10-16T12:25:33;21.50;89.80
39525;DHT22;25203;50.754;6.978;2022-10-16T12:27:34;21.40;90.50
39525;DHT22;25203;50.754;6.978;2022-10-16T12:29:44;21.30;90.10
39525;DHT22;25203;50.754;6.978;2022-10-16T12:31:47;21.50;91.10
39525;DHT22;25203;50.754;6.978;2022-10-16T12:33:59;21.60;90.80
39525;DHT22;25203;50.754;6.978;2022-10-16T12:36:03;21.50;90.50
39525;DHT22;25203;50.754;6.978;2022-10-16T12:38:17;21.30;92.20
39525;DHT22;25203;50.754;6.978;2022-10-16T12:40:33;21.10;91.60
39525;DHT22;25203;50.754;6.978;2022-10-16T12:42:34;21.10;90.30
39525;DHT22;25203;50.754;6.978;2022-10-16T12:44:35;21.00;92.30
39525;DHT22;25203;50.754;6.978;2022-10-16T12:46:39;21.10;92.40
39525;DHT22;25203;50.754;6.978;2022-10-16T12:48:42;21.10;92.50
39525;DHT22;25203;50.754;6.978;2022-10-16T12:50:48;21.20;91.30
39525;DHT22;25203;50.754;6.978;2022-10-16T12:52:49;21.30;91.10
39525;DHT22;25203;50.754;6.978;2022-10-16T12:54:50;21.40;90.70
39525;DHT22;25203;50.754;6.978;2022-10-16T13:04:04;21.20;93.80
39525;DHT22;25203;50.754;6.978;2022-10-16T13:22:24;20.90;95.70
39525;DHT22;25203;50.754;6.978;2022-10-16T13:24:42;20.90;96.40
39525;DHT22;25203;50.754;6.978;2022-10-16T13:26:52;20.90;96.70
39525;DHT22;25203;50.754;6.978;2022-10-16T13:28:59;21.00;95.40
39525;DHT22;25203;50.754;6.978;2022-10-16T13:31:01;21.20;96.70
39525;DHT22;25203;50.754;6.978;2022-10-16T13:33:17;21.20;95.70
39525;DHT22;25203;50.754;6.978;2022-10-16T13:35:23;21.00;96.70
39525;DHT22;25203;50.754;6.978;2022-10-16T13:37:24;21.00;98.40
39525;DHT22;25203;50.754;6.978;2022-10-16T13:39:29;21.00;95.90
39525;DHT22;25203;50.754;6.978;2022-10-16T13:41:30;20.90;97.10
39525;DHT22;25203;50.754;6.978;2022-10-16T13:43:37;20.90;96.60
39525;DHT22;25203;50.754;6.978;2022-10-16T13:45:38;21.00;96.30
39525;DHT22;25203;50.754;6.978;2022-10-16T13:47:38;21.00;96.00
39525;DHT22;25203;50.754;6.978;2022-10-16T13:49:39;20.90;96.80
39525;DHT22;25203;50.754;6.978;2022-10-16T13:51:40;20.90;97.10
39525;DHT22;25203;50.754;6.978;2022-10-16T13:53:41;20.90;98.20
39525;DHT22;25203;50.754;6.978;2022-10-16T13:55:42;20.80;97.40
39525;DHT22;25203;50.754;6.978;2022-10-16T13:57:43;20.70;98.60
39525;DHT22;25203;50.754;6.978;2022-10-16T13:59:44;20.60;98.50
39525;DHT22;25203;50.754;6.978;2022-10-16T14:01:44;20.60;98.20
39525;DHT22;25203;50.754;6.978;2022-10-16T14:03:46;20.50;98.20
39525;DHT22;25203;50.754;6.978;2022-10-16T14:06:02;20.50;99.90
39525;DHT22;25203;50.754;6.978;2022-10-16T14:08:04;20.50;99.40
39525;DHT22;25203;50.754;6.978;2022-10-16T14:10:07;20.50;99.90
39525;DHT22;25203;50.754;6.978;2022-10-16T14:12:19;20.40;99.90
39525;DHT22;25203;50.754;6.978;2022-10-16T14:14:20;20.40;99.90
39525;DHT22;25203;50.754;6.978;2022-10-16T14:16:23;20.40;99.90
39525;DHT22;25203;50.754;6.978;2022-10-16T14:18:26;20.40;99.90
39525;DHT22;25203;50.754;6.978;2022-10-16T14:20:31;20.40;99.90
39525;DHT22;25203;50.754;6.978;2022-10-16T14:22:38;20.40;99.90
39525;DHT22;25203;50.754;6.978;2022-10-16T14:24:40;20.40;99.90
39525;DHT22;25203;50.754;6.978;2022-10-16T14:26:43;20.40;99.90
39525;DHT22;25203;50.754;6.978;2022-10-16T14:28:45;20.40;99.90
39525;DHT22;25203;50.754;6.978;2022-10-16T14:30:53;20.40;99.90
39525;DHT22;25203;50.754;6.978;2022-10-16T14:33:00;20.40;99.90
39525;DHT22;25203;50.754;6.978;2022-10-16T14:35:01;20.30;99.90
39525;DHT22;25203;50.754;6.978;2022-10-16T14:37:29;20.30;99.90
39525;DHT22;25203;50.754;6.978;2022-10-16T14:39:29;20.20;99.90